KAUO/AUO METAR and TAF weather

Enter ICAO airport designator
Station Type Date Time Source
KAUO METAR 2020/02/21 13:56 UTC NOAA

KAUO 211356Z AUTO 36012G17KT 10SM FEW044 02/M02 A3046 RMK AO2 SLP343 T00171022 FZRANO


Station Type Date Time Source
KAUO Decoded METAR 2020/02/21 13:56 UTC NOAA

Auburn-Opelika Airport, AL, United States (KAUO) 32-37N 085-26W
Feb 21, 2020 - 08:56 AM EST / 2020.02.21 1356 UTC
Wind: from the N (360 degrees) at 14 MPH (12 KT) gusting to 20 MPH (17 KT):0
Visibility: 10 mile(s):0
Sky conditions: mostly clear
Temperature: 35.1 F (1.7 C)
Dew Point: 28.0 F (-2.2 C)
Relative Humidity: 75%
Pressure (altimeter): 30.46 in. Hg (1031 hPa)
ob: KAUO 211356Z AUTO 36012G17KT 10SM FEW044 02/M02 A3046 RMK AO2 SLP343 T00171022 FZRANO
cycle: 14

Station Type Date Time Source
KAUO TAF UTC NOAA

Error!

Example: see airport list